Overview Statistics Trail Chart Weather Telemetry Raw packets
 

This is the latest recevied weather packets stored in our database for station/object KO4LCK. If no packets are shown the sender has not sent any weather packets the latest 10 day(s).

<< 79 80 81 82 83 84 85 >>
Time Temp. Humidity Pressure Rain* Wind** Luminosity Snow
1788052815 26.67° C 76% 1019.8 hPa 0 mm - 0 W/m² -
1788052515 26.67° C 76% 1019.8 hPa 0 mm - 0 W/m² -
1788050133 28.33° C 66% 1019.6 hPa 0 mm - 0 W/m² -
1788049828 28.33° C 66% 1019.6 hPa 0 mm - 0 W/m² -
1788049520 28.89° C 66% 1019.8 hPa 0 mm - 0 W/m² -
1788048778 29.44° C 62% 1019.7 hPa 0 mm - 6 W/m² -
1788048476 29.44° C 62% 1019.7 hPa 0 mm - 6 W/m² -
1788048175 29.44° C 62% 1019.6 hPa 0 mm - 8 W/m² -
1788047872 29.44° C 61% 1019.5 hPa 0 mm - 12 W/m² -
1788047567 30° C 61% 1019.7 hPa 0 mm - 17 W/m² -
1788047267 30° C 60% 1019.5 hPa 0 mm - 23 W/m² -
1788046962 30° C 60% 1019.6 hPa 0 mm - 28 W/m² -
1788046660 30.56° C 59% 1019.7 hPa 0 mm - 33 W/m² -
1788046356 30.56° C 58% 1019.7 hPa 0 mm - 42 W/m² -
1788046053 30.56° C 57% 1019.6 hPa 0 mm - 53 W/m² -
1788045749 31.11° C 58% 1019.4 hPa 0 mm - 62 W/m² -
1788045444 31.11° C 57% 1019.4 hPa 0 mm - 73 W/m² -
1788045140 31.67° C 55% 1019.4 hPa 0 mm - 80 W/m² -
1788044839 31.67° C 57% 1019.3 hPa 0 mm - 86 W/m² -
1788044534 31.67° C 57% 1019.5 hPa 0 mm - 97 W/m² -
1788044233 32.22° C 57% 1019.5 hPa 0 mm - 123 W/m² -
1788043929 32.78° C 55% 1019.3 hPa 0 mm - 133 W/m² -
1788043624 32.78° C 54% 1019.2 hPa 0 mm - 150 W/m² -
1788043319 32.78° C 53% 1019.3 hPa 0 mm - 160 W/m² -
1788043019 33.89° C 53% 1019.4 hPa 0 mm - 196 W/m² -

* Rain latest hour (hover to see other rain measurements)
** Current wind speed in m/s (hover to see current wind gust speed)